createdAt,value
2023-05-15T00:01:48.288Z,4.38
2023-05-15T00:04:14.743Z,3.70
2023-05-15T00:06:41.138Z,3.80
2023-05-15T00:09:08.595Z,3.60
2023-05-15T00:11:34.945Z,3.90
2023-05-15T00:14:01.332Z,3.60
2023-05-15T00:16:27.674Z,3.75
2023-05-15T00:18:54.090Z,3.53
2023-05-15T00:21:20.630Z,3.97
2023-05-15T00:23:47.545Z,3.92
2023-05-15T00:26:15.639Z,3.65
2023-05-15T00:28:41.983Z,4.53
2023-05-15T00:31:08.845Z,3.97
2023-05-15T00:33:35.336Z,3.50
2023-05-15T00:36:02.900Z,4.07
2023-05-15T00:38:30.840Z,3.55
2023-05-15T00:40:57.210Z,3.92
2023-05-15T00:43:25.709Z,3.67
2023-05-15T00:45:53.698Z,3.85
2023-05-15T00:48:22.528Z,4.20
2023-05-15T00:50:51.393Z,3.80
2023-05-15T00:53:18.570Z,3.92
2023-05-15T00:55:49.828Z,3.70
2023-05-15T00:58:18.571Z,3.83
2023-05-15T01:00:46.421Z,3.35
2023-05-15T01:03:13.211Z,3.58
2023-05-15T01:05:39.628Z,3.65
2023-05-15T01:08:18.888Z,4.10
2023-05-15T01:10:47.342Z,4.00
2023-05-15T01:13:15.457Z,4.18
2023-05-15T01:15:42.047Z,4.53
2023-05-15T01:18:08.752Z,4.45
2023-05-15T01:21:06.335Z,3.83
2023-05-15T01:23:46.101Z,4.40
2023-05-15T01:26:44.117Z,4.30
2023-05-15T01:29:22.003Z,3.83
2023-05-15T01:31:57.555Z,4.78
2023-05-15T01:34:32.196Z,4.03
2023-05-15T01:37:02.703Z,3.75
2023-05-15T01:39:32.639Z,3.70
2023-05-15T01:42:10.514Z,3.58
2023-05-15T01:44:41.142Z,3.55
2023-05-15T01:47:13.640Z,4.00
2023-05-15T01:49:42.906Z,3.75
2023-05-15T01:52:15.827Z,3.72
2023-05-15T01:54:42.765Z,3.60
2023-05-15T01:57:10.309Z,3.88
2023-05-15T01:59:37.394Z,3.90
2023-05-15T02:02:05.338Z,3.80
2023-05-15T02:04:33.783Z,4.20
2023-05-15T02:07:03.926Z,3.85
2023-05-15T02:09:31.749Z,4.35
2023-05-15T02:12:00.803Z,4.18
2023-05-15T02:14:29.199Z,3.42
2023-05-15T02:16:55.713Z,3.55
2023-05-15T02:19:22.074Z,3.60
2023-05-15T02:21:48.619Z,4.07
2023-05-15T02:24:14.975Z,4.10
2023-05-15T02:26:51.406Z,4.03
2023-05-15T02:29:48.601Z,4.05
2023-05-15T02:32:29.057Z,4.03
2023-05-15T02:35:12.558Z,3.60
2023-05-15T02:37:44.923Z,3.85
2023-05-15T02:40:13.341Z,3.65
2023-05-15T02:42:41.632Z,3.60
2023-05-15T02:45:10.338Z,3.50
2023-05-15T02:47:37.244Z,4.35
2023-05-15T02:50:04.618Z,3.95
2023-05-15T02:52:34.673Z,4.03
2023-05-15T02:55:01.398Z,3.83
2023-05-15T02:57:27.737Z,3.42
2023-05-15T02:59:55.389Z,3.83
2023-05-15T03:02:21.756Z,3.47
2023-05-15T03:04:48.185Z,3.60
2023-05-15T03:07:14.590Z,3.80
2023-05-15T03:09:41.227Z,3.72
2023-05-15T03:12:08.573Z,3.75
2023-05-15T03:14:34.875Z,3.70
2023-05-15T03:17:01.427Z,3.45
2023-05-15T03:19:27.760Z,3.67
2023-05-15T03:21:54.209Z,4.35
2023-05-15T03:24:21.277Z,3.58
2023-05-15T03:26:47.585Z,4.28
2023-05-15T03:29:13.952Z,4.25
2023-05-15T03:31:40.389Z,3.97
2023-05-15T03:34:06.800Z,3.88
2023-05-15T03:36:33.193Z,3.92
2023-05-15T03:38:59.553Z,3.90
2023-05-15T03:41:27.753Z,3.40
2023-05-15T03:43:54.075Z,4.20
2023-05-15T03:46:20.570Z,4.38
2023-05-15T03:48:46.955Z,4.25
2023-05-15T03:51:13.280Z,4.20
2023-05-15T03:53:39.948Z,3.88
2023-05-15T03:56:06.491Z,3.72
2023-05-15T03:58:32.945Z,4.22
2023-05-15T04:00:59.370Z,3.92
2023-05-15T04:03:25.784Z,3.30
2023-05-15T04:05:52.325Z,3.70
2023-05-15T04:08:18.677Z,3.63
2023-05-15T04:10:45.042Z,3.92
2023-05-15T04:13:11.421Z,4.07
2023-05-15T04:15:37.859Z,4.10
2023-05-15T04:18:04.460Z,4.38
2023-05-15T04:20:30.969Z,3.75
2023-05-15T04:22:57.312Z,4.53
2023-05-15T04:25:24.389Z,4.38
2023-05-15T04:27:51.066Z,4.70
2023-05-15T04:30:17.552Z,4.72
2023-05-15T04:32:44.258Z,4.50
2023-05-15T04:35:14.934Z,5.13
2023-05-15T04:37:42.776Z,5.32
2023-05-15T04:40:09.841Z,4.88
2023-05-15T04:42:39.060Z,5.30
2023-05-15T04:45:07.227Z,4.22
2023-05-15T04:47:34.004Z,4.88
2023-05-15T04:50:00.439Z,5.20
2023-05-15T04:52:26.868Z,5.03
2023-05-15T04:54:55.456Z,5.05
2023-05-15T04:57:22.173Z,4.45
2023-05-15T04:59:48.644Z,4.97
2023-05-15T05:02:14.969Z,4.88
2023-05-15T05:04:42.838Z,5.65
2023-05-15T05:07:09.149Z,6.18
2023-05-15T05:09:35.456Z,5.85
2023-05-15T05:12:02.214Z,4.93
2023-05-15T05:14:28.714Z,5.93
2023-05-15T05:16:55.220Z,5.93
2023-05-15T05:19:21.509Z,6.30
2023-05-15T05:21:47.834Z,5.90
2023-05-15T05:24:14.209Z,5.72
2023-05-15T05:26:44.181Z,7.47
2023-05-15T05:29:10.719Z,12.32
2023-05-15T05:31:37.125Z,13.60
2023-05-15T05:34:03.671Z,12.40
2023-05-15T05:36:30.001Z,14.10
2023-05-15T05:38:56.369Z,13.02
2023-05-15T05:41:23.126Z,21.65
2023-05-15T05:43:49.473Z,28.27
2023-05-15T05:46:15.792Z,30.25
2023-05-15T05:48:42.482Z,27.77
2023-05-15T05:51:08.788Z,30.17
2023-05-15T05:53:35.793Z,32.50
2023-05-15T05:56:03.291Z,33.45
2023-05-15T05:58:29.683Z,33.03
2023-05-15T06:00:56.294Z,33.25
2023-05-15T06:03:22.810Z,33.03
2023-05-15T06:05:49.362Z,37.25
2023-05-15T06:08:16.843Z,35.75
2023-05-15T06:10:43.197Z,42.58
2023-05-15T06:13:09.524Z,37.05
2023-05-15T06:15:35.879Z,38.38
2023-05-15T06:18:02.354Z,40.60
2023-05-15T06:20:29.025Z,42.28
2023-05-15T06:22:55.405Z,38.28
2023-05-15T06:25:21.949Z,39.25
2023-05-15T06:27:48.277Z,42.53
2023-05-15T06:30:14.924Z,42.58
2023-05-15T06:32:41.881Z,37.15
2023-05-15T06:35:09.913Z,41.85
2023-05-15T06:37:36.982Z,38.10
2023-05-15T06:40:04.971Z,38.38
2023-05-15T06:42:31.836Z,41.25
2023-05-15T06:44:58.252Z,41.75
2023-05-15T06:47:24.762Z,40.67
2023-05-15T06:49:51.207Z,41.28
2023-05-15T06:52:17.576Z,39.88
2023-05-15T06:54:44.032Z,42.80
2023-05-15T06:57:10.374Z,42.72
2023-05-15T06:59:36.714Z,41.58
2023-05-15T07:02:03.612Z,41.28
2023-05-15T07:04:31.108Z,40.78
2023-05-15T07:06:57.874Z,40.67
2023-05-15T07:09:24.947Z,37.63
2023-05-15T07:11:51.298Z,36.50
2023-05-15T07:14:17.917Z,42.05
2023-05-15T07:16:45.044Z,39.15
2023-05-15T07:19:11.467Z,36.53
2023-05-15T07:21:39.274Z,39.17
2023-05-15T07:24:05.845Z,38.80
2023-05-15T07:26:38.667Z,36.10
2023-05-15T07:29:13.222Z,37.42
2023-05-15T07:31:40.427Z,37.25
2023-05-15T07:34:07.010Z,36.58
2023-05-15T07:36:33.372Z,38.75
2023-05-15T07:38:59.732Z,39.95
2023-05-15T07:41:26.045Z,39.97
2023-05-15T07:43:52.431Z,38.60
2023-05-15T07:46:18.851Z,39.85
2023-05-15T07:48:45.240Z,36.13
2023-05-15T07:51:11.576Z,34.97
2023-05-15T07:53:37.904Z,37.78
2023-05-15T07:56:04.728Z,35.17
2023-05-15T07:58:31.056Z,37.33
2023-05-15T08:00:57.432Z,35.80
2023-05-15T08:03:23.890Z,35.47
2023-05-15T08:05:50.392Z,39.08
2023-05-15T08:08:16.731Z,37.83
2023-05-15T08:10:43.080Z,33.88
2023-05-15T08:13:09.388Z,34.45
2023-05-15T08:15:35.875Z,36.50
2023-05-15T08:18:02.343Z,35.40
2023-05-15T08:20:28.744Z,37.65
2023-05-15T08:22:55.045Z,36.75
2023-05-15T08:25:21.401Z,35.13
2023-05-15T08:27:47.741Z,35.03
2023-05-15T08:30:14.287Z,35.28
2023-05-15T08:32:42.761Z,39.45
2023-05-15T08:35:09.139Z,39.00
2023-05-15T08:37:36.074Z,39.40
2023-05-15T08:40:05.088Z,37.03
2023-05-15T08:42:37.604Z,39.08
2023-05-15T08:45:05.526Z,37.53
2023-05-15T08:47:35.618Z,40.25
2023-05-15T08:50:08.241Z,37.38
2023-05-15T08:52:35.166Z,37.90
2023-05-15T08:55:03.734Z,39.22
2023-05-15T08:57:31.840Z,39.55
2023-05-15T08:59:59.022Z,41.50
2023-05-15T09:02:26.089Z,39.83
2023-05-15T09:04:52.568Z,43.50
2023-05-15T09:07:20.493Z,43.78
2023-05-15T09:09:47.562Z,44.38
2023-05-15T09:12:16.254Z,43.50
2023-05-15T09:14:43.456Z,43.35
2023-05-15T09:17:11.559Z,41.88
2023-05-15T09:19:42.339Z,39.40
2023-05-15T09:22:17.568Z,38.20
2023-05-15T09:24:45.474Z,40.05
2023-05-15T09:27:11.873Z,42.28
2023-05-15T09:29:39.836Z,40.47
2023-05-15T09:32:08.342Z,35.97
2023-05-15T09:34:37.599Z,34.97
2023-05-15T09:37:06.241Z,34.90
2023-05-15T09:39:33.950Z,40.15
2023-05-15T09:42:08.066Z,37.38
2023-05-15T09:44:34.815Z,36.53
2023-05-15T09:47:01.857Z,38.00
2023-05-15T09:49:30.582Z,35.95
2023-05-15T09:51:59.353Z,35.35
2023-05-15T09:54:27.341Z,37.05
2023-05-15T09:56:54.007Z,35.53
2023-05-15T09:59:23.016Z,36.72
2023-05-15T10:01:51.563Z,38.10
2023-05-15T10:04:18.554Z,35.55
2023-05-15T10:06:48.738Z,36.17
2023-05-15T10:09:15.868Z,37.23
2023-05-15T10:11:44.016Z,36.22
2023-05-15T10:14:13.101Z,35.83
2023-05-15T10:16:40.805Z,33.80
2023-05-15T10:19:09.731Z,33.20
2023-05-15T10:21:39.453Z,34.70
2023-05-15T10:24:07.292Z,33.10
2023-05-15T10:26:40.713Z,28.70
2023-05-15T10:29:10.169Z,29.45
2023-05-15T10:31:36.756Z,31.20
2023-05-15T10:34:04.572Z,33.42
2023-05-15T10:36:35.042Z,31.25
2023-05-15T10:39:04.405Z,30.52
2023-05-15T10:41:32.979Z,29.15
2023-05-15T10:44:00.505Z,31.20
2023-05-15T10:46:28.837Z,30.15
2023-05-15T10:48:55.249Z,31.73
2023-05-15T10:51:30.075Z,32.67
2023-05-15T10:53:57.474Z,30.30
2023-05-15T10:56:30.406Z,30.00
2023-05-15T10:58:56.895Z,33.45
2023-05-15T11:01:27.436Z,33.17
2023-05-15T11:04:17.125Z,34.35
2023-05-15T11:06:45.626Z,34.65
2023-05-15T11:09:27.885Z,34.40
2023-05-15T11:11:57.160Z,38.28
2023-05-15T11:14:28.257Z,37.35
2023-05-15T11:16:54.628Z,41.70
2023-05-15T11:19:55.519Z,37.72
2023-05-15T11:22:30.396Z,34.53
2023-05-15T11:24:59.801Z,39.25
2023-05-15T11:27:27.797Z,37.42
2023-05-15T11:30:13.514Z,35.40
2023-05-15T11:33:01.948Z,34.22
2023-05-15T11:35:32.438Z,34.33
2023-05-15T11:38:20.013Z,34.17
2023-05-15T11:40:55.741Z,30.67
2023-05-15T11:43:26.893Z,32.58
2023-05-15T11:45:57.772Z,33.35
2023-05-15T11:50:55.286Z,28.77
2023-05-15T11:53:22.993Z,33.73
2023-05-15T11:55:52.712Z,31.27
2023-05-15T11:58:22.990Z,30.10
2023-05-15T12:00:51.355Z,28.83
2023-05-15T12:03:24.704Z,27.85
2023-05-15T12:05:58.915Z,27.48
2023-05-15T12:08:30.628Z,27.70
2023-05-15T12:10:58.890Z,28.00
2023-05-15T12:13:25.358Z,29.30
2023-05-15T12:15:51.955Z,26.05
2023-05-15T12:18:18.327Z,26.05
2023-05-15T12:20:48.190Z,25.55
2023-05-15T12:23:17.074Z,27.80
2023-05-15T12:25:46.074Z,28.92
2023-05-15T12:28:12.785Z,28.85
2023-05-15T12:30:39.858Z,26.52
2023-05-15T12:33:07.715Z,22.65
2023-05-15T12:35:35.871Z,23.50
2023-05-15T12:38:06.400Z,24.85
2023-05-15T12:40:37.024Z,23.98
2023-05-15T12:43:07.450Z,22.20
2023-05-15T12:45:36.182Z,19.77
2023-05-15T12:48:03.335Z,19.63
2023-05-15T12:50:32.596Z,19.65
2023-05-15T12:53:02.403Z,17.50
2023-05-15T12:55:36.328Z,20.10
2023-05-15T12:58:07.605Z,20.25
2023-05-15T13:00:40.356Z,22.65
2023-05-15T13:03:09.644Z,19.60
2023-05-15T13:05:37.452Z,20.73
2023-05-15T13:08:05.708Z,20.55
2023-05-15T13:10:34.187Z,18.95
2023-05-15T13:13:00.930Z,20.67
2023-05-15T13:15:36.904Z,20.13
2023-05-15T13:18:08.722Z,20.13
2023-05-15T13:20:42.272Z,18.83
2023-05-15T13:23:11.299Z,20.92
2023-05-15T13:25:37.817Z,19.67
2023-05-15T13:28:06.366Z,20.05
2023-05-15T13:30:34.287Z,18.88
2023-05-15T13:33:01.278Z,16.30
2023-05-15T13:35:27.992Z,16.05
2023-05-15T13:37:54.460Z,14.48
2023-05-15T13:40:21.171Z,13.32
2023-05-15T13:42:47.610Z,15.18
2023-05-15T13:45:16.180Z,14.27
2023-05-15T13:47:43.816Z,15.05
2023-05-15T13:50:12.265Z,14.82
2023-05-15T13:52:39.914Z,16.52
2023-05-15T13:55:09.450Z,16.45
2023-05-15T13:57:37.256Z,15.10
2023-05-15T14:00:10.518Z,15.40
2023-05-15T14:02:36.963Z,12.80
2023-05-15T14:05:04.579Z,13.23
2023-05-15T14:07:31.698Z,12.52
2023-05-15T14:09:58.603Z,12.65
2023-05-15T14:12:24.981Z,14.65
2023-05-15T14:14:51.396Z,14.30
2023-05-15T14:17:18.383Z,15.18
2023-05-15T14:19:44.785Z,15.32
2023-05-15T14:22:11.215Z,14.73
2023-05-15T14:24:37.662Z,15.68
2023-05-15T14:27:04.513Z,15.77
2023-05-15T14:29:30.978Z,16.17
2023-05-15T14:31:57.396Z,17.05
2023-05-15T14:34:23.935Z,14.20
2023-05-15T14:36:50.732Z,11.70
2023-05-15T14:39:17.829Z,12.27
2023-05-15T14:41:44.555Z,11.98
2023-05-15T14:44:11.141Z,13.38
2023-05-15T14:46:38.008Z,14.65
2023-05-15T14:49:05.274Z,12.00
2023-05-15T14:51:32.284Z,12.13
2023-05-15T14:53:58.898Z,12.48
2023-05-15T14:56:25.850Z,12.18
2023-05-15T14:58:53.531Z,13.10
2023-05-15T15:01:20.366Z,13.57
2023-05-15T15:03:46.887Z,14.63
2023-05-15T15:06:13.276Z,14.13
2023-05-15T15:08:39.675Z,13.20
2023-05-15T15:11:06.800Z,13.88
2023-05-15T15:13:33.189Z,14.43
2023-05-15T15:15:59.557Z,12.48
2023-05-15T15:18:26.213Z,14.02
2023-05-15T15:20:52.870Z,13.48
2023-05-15T15:23:19.181Z,13.45
2023-05-15T15:28:35.089Z,14.55
2023-05-15T15:31:01.698Z,14.30
2023-05-15T15:33:28.663Z,13.05
2023-05-15T15:35:55.349Z,11.05
2023-05-15T15:38:21.710Z,11.10
2023-05-15T15:40:48.081Z,11.20
2023-05-15T15:43:14.403Z,10.18
2023-05-15T15:45:41.009Z,9.65
2023-05-15T15:48:07.416Z,8.77
2023-05-15T15:50:33.802Z,8.23
2023-05-15T15:53:00.130Z,8.73
2023-05-15T15:55:26.449Z,8.38
2023-05-15T15:57:52.820Z,8.63
2023-05-15T16:00:19.337Z,9.23
2023-05-15T16:02:46.327Z,8.95
2023-05-15T16:05:12.769Z,8.80
2023-05-15T16:07:39.098Z,8.48
2023-05-15T16:10:12.620Z,8.77
2023-05-15T16:12:44.840Z,8.45
2023-05-15T16:17:41.455Z,8.88
2023-05-15T16:20:08.060Z,8.55
2023-05-15T16:22:34.420Z,8.77
2023-05-15T16:25:00.898Z,8.40
2023-05-15T16:27:27.338Z,9.18
2023-05-15T16:29:53.674Z,8.50
2023-05-15T16:32:21.157Z,8.55
2023-05-15T16:34:47.914Z,8.27
2023-05-15T16:37:14.448Z,7.97
2023-05-15T16:39:40.907Z,8.15
2023-05-15T16:42:09.298Z,8.57
2023-05-15T16:44:35.870Z,8.20
2023-05-15T16:47:02.493Z,8.60
2023-05-15T16:49:28.822Z,8.10
2023-05-15T16:51:55.126Z,8.82
2023-05-15T16:54:21.423Z,8.70
2023-05-15T16:56:47.770Z,9.18
2023-05-15T16:59:14.100Z,9.45
2023-05-15T17:01:40.572Z,9.85
2023-05-15T17:04:07.141Z,9.10
2023-05-15T17:06:33.487Z,9.38
2023-05-15T17:08:59.885Z,8.90
2023-05-15T17:11:26.256Z,9.35
2023-05-15T17:13:52.591Z,9.40
2023-05-15T17:16:18.954Z,9.50
2023-05-15T17:18:45.331Z,8.98
2023-05-15T17:21:11.745Z,9.35
2023-05-15T17:23:38.112Z,9.90
2023-05-15T17:26:04.453Z,9.88
2023-05-15T17:28:30.806Z,9.63
2023-05-15T17:30:57.163Z,9.85
2023-05-15T17:33:23.521Z,9.43
2023-05-15T17:35:50.155Z,9.30
2023-05-15T17:38:16.605Z,8.88
2023-05-15T17:40:42.960Z,9.18
2023-05-15T17:43:10.126Z,8.23
2023-05-15T17:45:36.790Z,8.07
2023-05-15T17:48:04.815Z,8.57
2023-05-15T17:50:31.170Z,8.68
2023-05-15T17:52:57.510Z,8.40
2023-05-15T17:55:23.982Z,8.65
2023-05-15T17:57:50.500Z,8.70
2023-05-15T18:00:17.085Z,10.60
2023-05-15T18:02:43.488Z,10.82
2023-05-15T18:05:10.082Z,12.18
2023-05-15T18:07:36.396Z,16.23
2023-05-15T18:10:02.888Z,15.50
2023-05-15T18:12:29.261Z,15.23
2023-05-15T18:14:55.690Z,17.70
2023-05-15T18:17:22.133Z,18.13
2023-05-15T18:19:48.456Z,18.70
2023-05-15T18:22:15.561Z,18.67
2023-05-15T18:24:41.904Z,18.65
2023-05-15T18:27:08.295Z,19.17
2023-05-15T18:29:34.662Z,17.38
2023-05-15T18:32:01.130Z,14.95
2023-05-15T18:34:27.514Z,16.25
2023-05-15T18:36:53.934Z,14.88
2023-05-15T18:39:20.515Z,14.48
2023-05-15T18:41:46.903Z,17.00
2023-05-15T18:44:13.199Z,15.30
2023-05-15T18:46:39.661Z,16.83
2023-05-15T18:49:06.138Z,17.52
2023-05-15T18:51:32.599Z,16.10
2023-05-15T18:53:58.926Z,16.52
2023-05-15T18:56:25.487Z,17.63
2023-05-15T18:58:52.096Z,17.38
2023-05-15T19:01:18.522Z,17.13
2023-05-15T19:03:45.151Z,16.95
2023-05-15T19:06:13.240Z,17.30
2023-05-15T19:08:39.606Z,17.58
2023-05-15T19:11:05.978Z,17.77
2023-05-15T19:13:33.056Z,17.05
2023-05-15T19:15:59.458Z,16.38
2023-05-15T19:18:25.782Z,14.80
2023-05-15T19:20:52.168Z,15.27
2023-05-15T19:23:20.433Z,16.75
2023-05-15T19:25:46.789Z,15.95
2023-05-15T19:28:14.674Z,16.05
2023-05-15T19:30:41.279Z,14.43
2023-05-15T19:33:07.650Z,14.93
2023-05-15T19:35:35.947Z,14.98
2023-05-15T19:38:03.743Z,13.10
2023-05-15T19:40:30.137Z,12.55
2023-05-15T19:42:56.500Z,14.95
2023-05-15T19:45:22.809Z,15.45
2023-05-15T19:47:49.214Z,15.60
2023-05-15T19:50:15.684Z,14.98
2023-05-15T19:52:43.982Z,15.32
2023-05-15T19:55:11.647Z,15.65
2023-05-15T19:57:40.021Z,17.17
2023-05-15T20:00:07.884Z,17.67
2023-05-15T20:02:34.439Z,17.80
2023-05-15T20:05:00.939Z,19.25
2023-05-15T20:07:27.286Z,18.10
2023-05-15T20:09:55.332Z,19.75
2023-05-15T20:12:21.869Z,19.38
2023-05-15T20:14:49.628Z,20.27
2023-05-15T20:17:17.697Z,19.45
2023-05-15T20:19:44.286Z,19.38
2023-05-15T20:22:10.746Z,20.30
2023-05-15T20:24:37.670Z,19.52
2023-05-15T20:27:04.514Z,20.48
2023-05-15T20:29:30.888Z,19.63
2023-05-15T20:31:57.466Z,20.63
2023-05-15T20:34:24.006Z,19.08
2023-05-15T20:36:54.319Z,21.75
2023-05-15T20:39:21.258Z,23.35
2023-05-15T20:41:47.691Z,22.35
2023-05-15T20:44:14.075Z,23.83
2023-05-15T20:46:41.271Z,23.00
2023-05-15T20:49:07.637Z,23.33
2023-05-15T20:51:33.995Z,22.60
2023-05-15T20:54:00.432Z,22.40
2023-05-15T20:56:26.932Z,22.45
2023-05-15T20:58:53.257Z,23.77
2023-05-15T21:01:19.575Z,24.00
2023-05-15T21:03:46.276Z,25.67
2023-05-15T21:06:14.034Z,24.25
2023-05-15T21:08:40.425Z,25.08
2023-05-15T21:11:06.823Z,26.08
2023-05-15T21:13:33.152Z,24.35
2023-05-15T21:15:59.481Z,26.30
2023-05-15T21:18:25.890Z,27.38
2023-05-15T21:20:52.758Z,27.27
2023-05-15T21:23:20.915Z,26.92
2023-05-15T21:25:47.605Z,27.33
2023-05-15T21:28:14.157Z,26.90
2023-05-15T21:30:40.651Z,29.25
2023-05-15T21:33:07.348Z,28.48
2023-05-15T21:51:40.143Z,36.88
2023-05-15T21:54:06.718Z,35.97
2023-05-15T22:02:31.763Z,36.75
2023-05-15T22:04:58.505Z,36.92
2023-05-15T22:07:28.015Z,37.45
2023-05-15T22:09:54.748Z,37.30
2023-05-15T22:12:21.598Z,40.28
2023-05-15T22:14:58.393Z,39.53
2023-05-15T22:17:30.412Z,38.97
2023-05-15T22:20:07.325Z,38.53
2023-05-15T22:22:35.597Z,38.17
2023-05-15T22:25:02.644Z,38.65
2023-05-15T22:27:29.589Z,38.42
2023-05-15T22:30:03.460Z,37.72
2023-05-15T22:32:30.437Z,38.72
2023-05-15T22:34:57.260Z,40.08
2023-05-15T22:37:24.030Z,37.78
2023-05-15T22:39:50.921Z,36.00
2023-05-15T22:42:19.107Z,35.90
2023-05-15T22:44:46.880Z,35.30
2023-05-15T22:47:13.852Z,36.47
2023-05-15T22:49:43.247Z,37.00
2023-05-15T22:52:12.255Z,37.58
2023-05-15T22:54:40.882Z,36.58
2023-05-15T22:57:08.717Z,37.67
2023-05-15T22:59:35.908Z,36.65
2023-05-15T23:02:05.771Z,36.28
2023-05-15T23:04:32.703Z,36.40
2023-05-15T23:06:59.528Z,33.85
2023-05-15T23:09:26.395Z,36.28
2023-05-15T23:11:56.379Z,32.40
2023-05-15T23:14:24.252Z,32.53
2023-05-15T23:19:38.455Z,32.40
2023-05-15T23:22:05.571Z,33.65
2023-05-15T23:24:32.432Z,30.13
2023-05-15T23:26:59.193Z,30.95
2023-05-15T23:29:26.008Z,30.55
2023-05-15T23:31:52.366Z,29.30
2023-05-15T23:34:18.778Z,30.48
2023-05-15T23:36:45.303Z,29.05
2023-05-15T23:39:11.646Z,29.58
2023-05-15T23:41:37.983Z,26.73
2023-05-15T23:44:04.600Z,27.92
2023-05-15T23:46:31.053Z,26.15
2023-05-15T23:48:57.388Z,28.77
2023-05-15T23:51:23.765Z,26.58
2023-05-15T23:53:50.394Z,27.90
2023-05-15T23:56:16.693Z,29.05
2023-05-15T23:58:43.060Z,28.33
